sensor_id;sensor_type;location;lat;lon;timestamp;pressure;altitude;pressure_sealevel;temperature;humidity
57038;BME280;59942;49.304;8.256;2023-08-06T00:01:09;99519.25;;;16.54;91.21
57038;BME280;59942;49.304;8.256;2023-08-06T00:03:35;99501.22;;;16.40;90.39
57038;BME280;59942;49.304;8.256;2023-08-06T00:06:05;99495.13;;;16.72;85.75
57038;BME280;59942;49.304;8.256;2023-08-06T00:08:31;99467.69;;;16.66;81.52
57038;BME280;59942;49.304;8.256;2023-08-06T00:10:58;99476.88;;;16.81;79.94
57038;BME280;59942;49.304;8.256;2023-08-06T00:13:24;99500.19;;;16.84;82.88
57038;BME280;59942;49.304;8.256;2023-08-06T00:15:51;99486.38;;;16.82;81.39
57038;BME280;59942;49.304;8.256;2023-08-06T00:18:17;99489.13;;;16.81;83.38
57038;BME280;59942;49.304;8.256;2023-08-06T00:20:44;99493.81;;;16.77;83.12
57038;BME280;59942;49.304;8.256;2023-08-06T00:23:10;99490.28;;;16.67;84.86
57038;BME280;59942;49.304;8.256;2023-08-06T00:25:37;99481.22;;;16.39;86.75
57038;BME280;59942;49.304;8.256;2023-08-06T00:28:03;99488.31;;;16.15;88.72
57038;BME280;59942;49.304;8.256;2023-08-06T00:30:31;99489.50;;;16.23;88.72
57038;BME280;59942;49.304;8.256;2023-08-06T00:32:57;99476.75;;;16.29;87.98
57038;BME280;59942;49.304;8.256;2023-08-06T00:35:24;99424.81;;;15.70;90.52
57038;BME280;59942;49.304;8.256;2023-08-06T00:37:51;99430.53;;;15.86;89.23
57038;BME280;59942;49.304;8.256;2023-08-06T00:40:20;99475.94;;;16.18;86.45
57038;BME280;59942;49.304;8.256;2023-08-06T00:42:48;99426.13;;;15.87;89.45
57038;BME280;59942;49.304;8.256;2023-08-06T00:45:14;99479.94;;;16.01;89.33
57038;BME280;59942;49.304;8.256;2023-08-06T00:47:41;99458.91;;;15.91;90.14
57038;BME280;59942;49.304;8.256;2023-08-06T00:50:08;99469.25;;;15.81;90.74
57038;BME280;59942;49.304;8.256;2023-08-06T00:52:35;99458.53;;;15.95;89.53
57038;BME280;59942;49.304;8.256;2023-08-06T00:55:03;99459.72;;;15.91;91.19
57038;BME280;59942;49.304;8.256;2023-08-06T00:57:30;99453.78;;;15.78;91.22
57038;BME280;59942;49.304;8.256;2023-08-06T00:59:56;99447.88;;;15.76;91.22
57038;BME280;59942;49.304;8.256;2023-08-06T01:02:23;99451.31;;;15.76;92.10
57038;BME280;59942;49.304;8.256;2023-08-06T01:04:50;99447.13;;;15.74;91.71
57038;BME280;59942;49.304;8.256;2023-08-06T01:13:15;99426.03;;;15.54;90.15
57038;BME280;59942;49.304;8.256;2023-08-06T01:15:49;99428.03;;;15.73;88.45
57038;BME280;59942;49.304;8.256;2023-08-06T01:18:17;99424.59;;;15.61;88.38
57038;BME280;59942;49.304;8.256;2023-08-06T01:20:44;99420.47;;;15.48;89.62
57038;BME280;59942;49.304;8.256;2023-08-06T01:23:10;99400.72;;;15.55;88.35
57038;BME280;59942;49.304;8.256;2023-08-06T01:25:49;99401.56;;;15.55;87.70
57038;BME280;59942;49.304;8.256;2023-08-06T01:28:23;99397.06;;;15.57;86.92
57038;BME280;59942;49.304;8.256;2023-08-06T01:30:58;99401.56;;;15.55;86.13
57038;BME280;59942;49.304;8.256;2023-08-06T01:33:27;99390.97;;;15.57;86.47
57038;BME280;59942;49.304;8.256;2023-08-06T01:35:57;99389.66;;;15.62;86.21
57038;BME280;59942;49.304;8.256;2023-08-06T01:38:24;99384.25;;;15.43;87.00
57038;BME280;59942;49.304;8.256;2023-08-06T01:40:51;99390.09;;;15.24;88.79
57038;BME280;59942;49.304;8.256;2023-08-06T01:43:18;99385.09;;;15.32;88.42
57038;BME280;59942;49.304;8.256;2023-08-06T01:45:44;99389.94;;;15.48;87.54
57038;BME280;59942;49.304;8.256;2023-08-06T01:48:11;99391.84;;;15.35;87.54
57038;BME280;59942;49.304;8.256;2023-08-06T01:50:37;99389.00;;;15.38;88.26
57038;BME280;59942;49.304;8.256;2023-08-06T01:53:04;99390.53;;;15.29;88.90
57038;BME280;59942;49.304;8.256;2023-08-06T01:55:30;99404.22;;;15.33;88.72
57038;BME280;59942;49.304;8.256;2023-08-06T01:57:57;99360.44;;;15.02;88.75
57038;BME280;59942;49.304;8.256;2023-08-06T02:00:23;99404.53;;;15.39;87.74
57038;BME280;59942;49.304;8.256;2023-08-06T02:02:50;99363.84;;;15.25;87.32
57038;BME280;59942;49.304;8.256;2023-08-06T02:05:16;99394.81;;;15.41;88.07
57038;BME280;59942;49.304;8.256;2023-08-06T02:07:43;99395.16;;;15.37;88.73
57038;BME280;59942;49.304;8.256;2023-08-06T02:10:09;99403.00;;;15.37;88.97
57038;BME280;59942;49.304;8.256;2023-08-06T02:12:36;99361.63;;;14.98;89.45
57038;BME280;59942;49.304;8.256;2023-08-06T02:15:03;99403.72;;;15.27;90.19
57038;BME280;59942;49.304;8.256;2023-08-06T02:17:30;99392.59;;;15.25;90.92
57038;BME280;59942;49.304;8.256;2023-08-06T02:19:56;99356.84;;;15.03;90.58
57038;BME280;59942;49.304;8.256;2023-08-06T02:22:23;99408.72;;;15.19;91.29
57038;BME280;59942;49.304;8.256;2023-08-06T02:24:49;99395.66;;;14.97;92.45
57038;BME280;59942;49.304;8.256;2023-08-06T02:27:16;99383.31;;;14.87;92.91
57038;BME280;59942;49.304;8.256;2023-08-06T02:29:43;99402.91;;;15.16;91.44
57038;BME280;59942;49.304;8.256;2023-08-06T02:32:09;99396.47;;;14.97;92.85
57038;BME280;59942;49.304;8.256;2023-08-06T02:34:36;99394.47;;;15.01;92.74
57038;BME280;59942;49.304;8.256;2023-08-06T02:37:02;99395.66;;;14.97;93.39
57038;BME280;59942;49.304;8.256;2023-08-06T02:39:29;99391.28;;;15.08;92.14
57038;BME280;59942;49.304;8.256;2023-08-06T02:41:55;99388.06;;;15.16;91.43
57038;BME280;59942;49.304;8.256;2023-08-06T02:44:22;99381.88;;;15.06;92.44
57038;BME280;59942;49.304;8.256;2023-08-06T02:46:49;99383.81;;;15.04;91.95
57038;BME280;59942;49.304;8.256;2023-08-06T02:49:15;99342.97;;;14.80;91.83
57038;BME280;59942;49.304;8.256;2023-08-06T02:51:41;99334.91;;;14.83;90.94
57038;BME280;59942;49.304;8.256;2023-08-06T02:54:10;99329.22;;;14.89;89.90
57038;BME280;59942;49.304;8.256;2023-08-06T02:56:37;99374.19;;;15.16;90.40
57038;BME280;59942;49.304;8.256;2023-08-06T02:59:04;99377.41;;;15.08;90.43
57038;BME280;59942;49.304;8.256;2023-08-06T03:01:31;99310.09;;;14.77;89.88
57038;BME280;59942;49.304;8.256;2023-08-06T03:03:57;99366.47;;;15.14;91.05
57038;BME280;59942;49.304;8.256;2023-08-06T03:06:24;99356.03;;;15.14;91.31
57038;BME280;59942;49.304;8.256;2023-08-06T03:08:50;99314.63;;;14.87;90.90
57038;BME280;59942;49.304;8.256;2023-08-06T03:11:17;99358.63;;;15.14;91.41
57038;BME280;59942;49.304;8.256;2023-08-06T03:13:43;99356.97;;;15.13;91.57
57038;BME280;59942;49.304;8.256;2023-08-06T03:16:10;99359.25;;;14.95;92.86
57038;BME280;59942;49.304;8.256;2023-08-06T03:18:37;99314.59;;;14.64;93.40
57038;BME280;59942;49.304;8.256;2023-08-06T03:21:03;99338.69;;;14.90;93.28
57038;BME280;59942;49.304;8.256;2023-08-06T03:23:30;99332.41;;;14.93;93.10
57038;BME280;59942;49.304;8.256;2023-08-06T03:26:00;99342.84;;;14.93;93.63
57038;BME280;59942;49.304;8.256;2023-08-06T03:28:27;99347.47;;;15.12;93.32
57038;BME280;59942;49.304;8.256;2023-08-06T03:31:03;99348.56;;;14.98;93.89
57038;BME280;59942;49.304;8.256;2023-08-06T03:33:30;99318.66;;;14.91;94.21
57038;BME280;59942;49.304;8.256;2023-08-06T03:35:57;99360.56;;;15.01;95.09
57038;BME280;59942;49.304;8.256;2023-08-06T03:38:23;99362.06;;;15.03;95.23
57038;BME280;59942;49.304;8.256;2023-08-06T03:40:50;99358.88;;;15.11;95.34
57038;BME280;59942;49.304;8.256;2023-08-06T03:43:16;99358.63;;;15.03;95.38
57038;BME280;59942;49.304;8.256;2023-08-06T03:45:43;99368.97;;;15.04;96.23
57038;BME280;59942;49.304;8.256;2023-08-06T03:48:10;99360.75;;;14.98;96.23
57038;BME280;59942;49.304;8.256;2023-08-06T03:50:36;99270.31;;;14.40;96.73
57038;BME280;59942;49.304;8.256;2023-08-06T03:53:04;99351.16;;;14.87;96.75
57038;BME280;59942;49.304;8.256;2023-08-06T03:55:30;99310.38;;;14.63;96.29
57038;BME280;59942;49.304;8.256;2023-08-06T03:57:57;99359.13;;;14.85;95.30
57038;BME280;59942;49.304;8.256;2023-08-06T04:00:24;99302.06;;;14.69;94.70
57038;BME280;59942;49.304;8.256;2023-08-06T04:02:50;99314.88;;;14.84;94.23
57038;BME280;59942;49.304;8.256;2023-08-06T04:05:17;99343.47;;;14.97;93.38
57038;BME280;59942;49.304;8.256;2023-08-06T04:07:43;99352.00;;;14.99;92.18
57038;BME280;59942;49.304;8.256;2023-08-06T04:10:10;99359.69;;;15.00;91.91
57038;BME280;59942;49.304;8.256;2023-08-06T04:12:36;99365.63;;;14.91;92.29
57038;BME280;59942;49.304;8.256;2023-08-06T04:15:06;99366.59;;;14.90;91.42
57038;BME280;59942;49.304;8.256;2023-08-06T04:17:32;99354.84;;;14.96;90.93
57038;BME280;59942;49.304;8.256;2023-08-06T04:19:59;99318.28;;;14.73;90.82
57038;BME280;59942;49.304;8.256;2023-08-06T04:22:26;99363.03;;;14.91;90.59
57038;BME280;59942;49.304;8.256;2023-08-06T04:24:53;99309.66;;;14.72;90.48
57038;BME280;59942;49.304;8.256;2023-08-06T04:27:19;99359.00;;;15.09;89.61
57038;BME280;59942;49.304;8.256;2023-08-06T04:29:46;99331.72;;;14.80;90.06
57038;BME280;59942;49.304;8.256;2023-08-06T04:32:13;99356.97;;;15.02;90.27
57038;BME280;59942;49.304;8.256;2023-08-06T04:34:39;99370.63;;;15.05;90.36
57038;BME280;59942;49.304;8.256;2023-08-06T04:37:06;99377.16;;;14.88;91.59
57038;BME280;59942;49.304;8.256;2023-08-06T04:39:32;99321.53;;;14.41;93.44
57038;BME280;59942;49.304;8.256;2023-08-06T04:41:59;99360.16;;;14.83;93.09
57038;BME280;59942;49.304;8.256;2023-08-06T04:44:26;99316.59;;;14.61;92.82
57038;BME280;59942;49.304;8.256;2023-08-06T04:46:52;99361.38;;;14.90;92.83
57038;BME280;59942;49.304;8.256;2023-08-06T04:49:20;99356.25;;;14.77;92.34
57038;BME280;59942;49.304;8.256;2023-08-06T04:51:47;99367.53;;;14.89;92.37
57038;BME280;59942;49.304;8.256;2023-08-06T04:54:13;99365.72;;;14.67;93.50
57038;BME280;59942;49.304;8.256;2023-08-06T04:56:40;99365.38;;;14.71;94.07
57038;BME280;59942;49.304;8.256;2023-08-06T04:59:07;99365.38;;;14.71;94.56
57038;BME280;59942;49.304;8.256;2023-08-06T05:01:33;99363.81;;;14.69;95.53
57038;BME280;59942;49.304;8.256;2023-08-06T05:04:00;99330.09;;;14.43;95.74
57038;BME280;59942;49.304;8.256;2023-08-06T05:06:26;99388.09;;;14.58;96.78
57038;BME280;59942;49.304;8.256;2023-08-06T05:08:53;99368.47;;;14.65;96.12
57038;BME280;59942;49.304;8.256;2023-08-06T05:11:19;99366.25;;;14.48;98.07
57038;BME280;59942;49.304;8.256;2023-08-06T05:13:46;99370.75;;;14.46;97.35
57038;BME280;59942;49.304;8.256;2023-08-06T05:16:13;99339.44;;;14.34;98.04
57038;BME280;59942;49.304;8.256;2023-08-06T05:18:39;99326.81;;;14.17;99.61
57038;BME280;59942;49.304;8.256;2023-08-06T05:21:07;99371.69;;;14.33;100.00
57038;BME280;59942;49.304;8.256;2023-08-06T05:23:33;99377.56;;;14.24;100.00
57038;BME280;59942;49.304;8.256;2023-08-06T05:26:00;99383.78;;;14.34;100.00
57038;BME280;59942;49.304;8.256;2023-08-06T05:28:27;99375.44;;;14.29;100.00
57038;BME280;59942;49.304;8.256;2023-08-06T05:30:53;99340.28;;;14.35;99.51
57038;BME280;59942;49.304;8.256;2023-08-06T05:33:20;99380.25;;;14.47;100.00
57038;BME280;59942;49.304;8.256;2023-08-06T05:35:46;99323.88;;;14.21;100.00
57038;BME280;59942;49.304;8.256;2023-08-06T05:38:13;99371.38;;;14.49;99.47
57038;BME280;59942;49.304;8.256;2023-08-06T05:40:39;99372.38;;;14.35;100.00
57038;BME280;59942;49.304;8.256;2023-08-06T05:43:06;99368.03;;;14.47;99.76
57038;BME280;59942;49.304;8.256;2023-08-06T05:45:32;99334.31;;;14.33;99.43
57038;BME280;59942;49.304;8.256;2023-08-06T05:47:59;99378.44;;;14.47;99.89
57038;BME280;59942;49.304;8.256;2023-08-06T05:50:26;99367.44;;;14.44;100.00
57038;BME280;59942;49.304;8.256;2023-08-06T05:52:52;99381.19;;;14.46;100.00
57038;BME280;59942;49.304;8.256;2023-08-06T05:55:20;99373.47;;;14.44;99.07
57038;BME280;59942;49.304;8.256;2023-08-06T05:57:46;99391.81;;;14.67;98.73
57038;BME280;59942;49.304;8.256;2023-08-06T06:00:13;99385.19;;;14.74;98.16
57038;BME280;59942;49.304;8.256;2023-08-06T06:02:40;99381.03;;;14.71;98.27
57038;BME280;59942;49.304;8.256;2023-08-06T06:05:06;99333.13;;;14.25;99.72
57038;BME280;59942;49.304;8.256;2023-08-06T06:07:33;99394.94;;;14.72;99.26
57038;BME280;59942;49.304;8.256;2023-08-06T06:10:00;99352.16;;;14.50;98.49
57038;BME280;59942;49.304;8.256;2023-08-06T06:12:26;99392.44;;;14.70;98.52
57038;BME280;59942;49.304;8.256;2023-08-06T06:14:53;99362.44;;;14.40;99.12
57038;BME280;59942;49.304;8.256;2023-08-06T06:17:20;99395.47;;;14.64;99.81
57038;BME280;59942;49.304;8.256;2023-08-06T06:19:46;99400.00;;;14.62;99.25
57038;BME280;59942;49.304;8.256;2023-08-06T06:22:13;99402.31;;;14.54;99.68
57038;BME280;59942;49.304;8.256;2023-08-06T06:24:40;99412.75;;;14.54;99.50
57038;BME280;59942;49.304;8.256;2023-08-06T06:27:06;99403.81;;;14.69;99.75
57038;BME280;59942;49.304;8.256;2023-08-06T06:29:33;99412.97;;;14.86;98.46
57038;BME280;59942;49.304;8.256;2023-08-06T06:31:59;99416.75;;;14.82;98.06
57038;BME280;59942;49.304;8.256;2023-08-06T06:34:26;99367.56;;;14.42;98.62
57038;BME280;59942;49.304;8.256;2023-08-06T06:36:52;99418.53;;;14.93;97.87
57038;BME280;59942;49.304;8.256;2023-08-06T06:39:19;99408.69;;;14.85;97.22
57038;BME280;59942;49.304;8.256;2023-08-06T06:41:45;99414.84;;;14.73;98.24
57038;BME280;59942;49.304;8.256;2023-08-06T06:44:13;99411.66;;;14.81;100.00
57038;BME280;59942;49.304;8.256;2023-08-06T06:46:39;99408.94;;;14.93;98.92
57038;BME280;59942;49.304;8.256;2023-08-06T06:49:06;99398.72;;;14.79;100.00
57038;BME280;59942;49.304;8.256;2023-08-06T06:51:32;99412.28;;;15.07;98.36
57038;BME280;59942;49.304;8.256;2023-08-06T06:53:59;99416.06;;;15.03;99.00
57038;BME280;59942;49.304;8.256;2023-08-06T06:56:25;99411.56;;;15.27;97.90
57038;BME280;59942;49.304;8.256;2023-08-06T06:58:52;99329.81;;;14.70;97.19
57038;BME280;59942;49.304;8.256;2023-08-06T07:01:18;99331.47;;;14.83;97.75
57038;BME280;59942;49.304;8.256;2023-08-06T07:03:45;99406.69;;;15.45;97.16
57038;BME280;59942;49.304;8.256;2023-08-06T07:06:11;99414.41;;;15.36;97.05
57038;BME280;59942;49.304;8.256;2023-08-06T07:08:38;99415.22;;;15.25;97.97
57038;BME280;59942;49.304;8.256;2023-08-06T07:11:06;99420.34;;;15.26;97.71
57038;BME280;59942;49.304;8.256;2023-08-06T07:13:33;99371.44;;;14.94;97.49
57038;BME280;59942;49.304;8.256;2023-08-06T07:16:00;99418.19;;;14.86;100.00
57038;BME280;59942;49.304;8.256;2023-08-06T07:18:28;99417.22;;;14.87;100.00
57038;BME280;59942;49.304;8.256;2023-08-06T07:20:55;99382.72;;;14.84;100.00
57038;BME280;59942;49.304;8.256;2023-08-06T07:23:23;99374.44;;;15.13;98.63
57038;BME280;59942;49.304;8.256;2023-08-06T07:25:50;99386.88;;;15.09;97.74
57038;BME280;59942;49.304;8.256;2023-08-06T07:28:17;99419.03;;;15.43;96.86
57038;BME280;59942;49.304;8.256;2023-08-06T07:30:45;99410.44;;;15.64;95.83
57038;BME280;59942;49.304;8.256;2023-08-06T07:33:12;99414.56;;;16.01;94.24
57038;BME280;59942;49.304;8.256;2023-08-06T07:35:38;99419.38;;;16.17;92.36
57038;BME280;59942;49.304;8.256;2023-08-06T07:38:05;99376.75;;;16.05;91.66
57038;BME280;59942;49.304;8.256;2023-08-06T07:40:32;99410.34;;;16.42;92.31
57038;BME280;59942;49.304;8.256;2023-08-06T07:42:58;99419.59;;;16.46;91.15
57038;BME280;59942;49.304;8.256;2023-08-06T07:45:25;99426.03;;;16.42;90.85
57038;BME280;59942;49.304;8.256;2023-08-06T07:47:53;99420.19;;;16.71;92.27
57038;BME280;59942;49.304;8.256;2023-08-06T07:50:20;99375.00;;;15.94;92.58
57038;BME280;59942;49.304;8.256;2023-08-06T07:52:47;99416.25;;;16.23;95.52
57038;BME280;59942;49.304;8.256;2023-08-06T07:55:13;99432.03;;;15.89;96.92
57038;BME280;59942;49.304;8.256;2023-08-06T07:57:40;99427.31;;;15.71;97.11
57038;BME280;59942;49.304;8.256;2023-08-06T08:00:07;99380.19;;;15.61;97.50
57038;BME280;59942;49.304;8.256;2023-08-06T08:02:34;99350.41;;;15.41;98.20
57038;BME280;59942;49.304;8.256;2023-08-06T08:05:00;99416.84;;;15.83;96.06
57038;BME280;59942;49.304;8.256;2023-08-06T08:07:27;99419.28;;;16.07;95.34
57038;BME280;59942;49.304;8.256;2023-08-06T08:09:56;99415.84;;;16.06;93.70
57038;BME280;59942;49.304;8.256;2023-08-06T08:12:23;99421.16;;;16.16;93.23
57038;BME280;59942;49.304;8.256;2023-08-06T08:14:49;99419.00;;;16.21;91.80
57038;BME280;59942;49.304;8.256;2023-08-06T08:17:16;99423.00;;;16.37;91.33
57038;BME280;59942;49.304;8.256;2023-08-06T08:19:43;99423.13;;;16.35;90.06
57038;BME280;59942;49.304;8.256;2023-08-06T08:22:09;99424.97;;;16.65;89.00
57038;BME280;59942;49.304;8.256;2023-08-06T08:24:36;99417.50;;;16.61;88.51
57038;BME280;59942;49.304;8.256;2023-08-06T08:27:02;99392.50;;;16.47;88.79
57038;BME280;59942;49.304;8.256;2023-08-06T08:29:29;99420.69;;;16.86;89.56
57038;BME280;59942;49.304;8.256;2023-08-06T08:31:55;99409.22;;;16.56;87.96
57038;BME280;59942;49.304;8.256;2023-08-06T08:34:22;99374.38;;;16.34;86.94
57038;BME280;59942;49.304;8.256;2023-08-06T08:36:49;99397.91;;;16.34;90.09
57038;BME280;59942;49.304;8.256;2023-08-06T08:39:16;99371.16;;;16.30;90.91
57038;BME280;59942;49.304;8.256;2023-08-06T08:41:43;99398.94;;;16.64;91.09
57038;BME280;59942;49.304;8.256;2023-08-06T08:44:10;99410.88;;;16.57;92.86
57038;BME280;59942;49.304;8.256;2023-08-06T08:46:40;99412.22;;;16.51;93.97
57038;BME280;59942;49.304;8.256;2023-08-06T08:49:08;99414.03;;;16.39;94.22
57038;BME280;59942;49.304;8.256;2023-08-06T08:51:35;99410.22;;;16.22;94.35
57038;BME280;59942;49.304;8.256;2023-08-06T08:54:07;99363.59;;;16.48;93.99
57038;BME280;59942;49.304;8.256;2023-08-06T08:56:34;99402.00;;;16.90;91.08
57038;BME280;59942;49.304;8.256;2023-08-06T08:59:01;99406.94;;;17.14;86.61
57038;BME280;59942;49.304;8.256;2023-08-06T09:01:28;99327.97;;;16.88;89.04
57038;BME280;59942;49.304;8.256;2023-08-06T09:03:56;99407.88;;;17.44;86.92
57038;BME280;59942;49.304;8.256;2023-08-06T09:06:25;99403.56;;;17.33;83.00
57038;BME280;59942;49.304;8.256;2023-08-06T09:09:08;99408.25;;;16.99;82.33
57038;BME280;59942;49.304;8.256;2023-08-06T09:11:39;99414.28;;;17.21;83.91
57038;BME280;59942;49.304;8.256;2023-08-06T09:14:09;99396.56;;;17.03;81.12
57038;BME280;59942;49.304;8.256;2023-08-06T09:16:36;99368.66;;;16.92;78.68
57038;BME280;59942;49.304;8.256;2023-08-06T09:19:09;99412.22;;;16.93;77.04
57038;BME280;59942;49.304;8.256;2023-08-06T09:21:37;99408.50;;;16.96;76.77
57038;BME280;59942;49.304;8.256;2023-08-06T09:24:11;99367.53;;;16.43;78.59
57038;BME280;59942;49.304;8.256;2023-08-06T09:26:40;99426.13;;;16.73;80.79
57038;BME280;59942;49.304;8.256;2023-08-06T09:29:07;99378.75;;;16.12;80.45
57038;BME280;59942;49.304;8.256;2023-08-06T09:31:42;99427.13;;;16.39;82.17
57038;BME280;59942;49.304;8.256;2023-08-06T09:34:22;99411.16;;;16.21;83.83
57038;BME280;59942;49.304;8.256;2023-08-06T09:36:51;99410.50;;;16.08;86.24
57038;BME280;59942;49.304;8.256;2023-08-06T09:39:20;99427.00;;;16.08;87.83
57038;BME280;59942;49.304;8.256;2023-08-06T09:41:47;99444.88;;;16.36;87.82
57038;BME280;59942;49.304;8.256;2023-08-06T09:44:19;99440.56;;;16.13;88.24
57038;BME280;59942;49.304;8.256;2023-08-06T09:46:57;99395.28;;;16.02;87.28
57038;BME280;59942;49.304;8.256;2023-08-06T09:52:00;99399.91;;;16.09;85.99
57038;BME280;59942;49.304;8.256;2023-08-06T09:54:27;99441.19;;;15.94;85.71
57038;BME280;59942;49.304;8.256;2023-08-06T09:56:56;99451.69;;;16.27;86.71
57038;BME280;59942;49.304;8.256;2023-08-06T09:59:23;99397.09;;;16.01;85.41
57038;BME280;59942;49.304;8.256;2023-08-06T10:01:51;99452.06;;;16.22;84.07
57038;BME280;59942;49.304;8.256;2023-08-06T10:04:20;99453.53;;;16.36;80.78
57038;BME280;59942;49.304;8.256;2023-08-06T10:06:50;99455.72;;;16.31;80.06
57038;BME280;59942;49.304;8.256;2023-08-06T10:09:17;99456.16;;;16.36;80.82
57038;BME280;59942;49.304;8.256;2023-08-06T10:11:50;99466.13;;;16.42;77.95
57038;BME280;59942;49.304;8.256;2023-08-06T10:14:31;99459.34;;;16.40;77.53
57038;BME280;59942;49.304;8.256;2023-08-06T10:16:59;99460.44;;;16.37;78.13
57038;BME280;59942;49.304;8.256;2023-08-06T10:19:27;99413.13;;;16.08;77.66
57038;BME280;59942;49.304;8.256;2023-08-06T10:22:16;99462.53;;;16.43;77.03
57038;BME280;59942;49.304;8.256;2023-08-06T10:24:54;99470.78;;;16.39;76.83
57038;BME280;59942;49.304;8.256;2023-08-06T10:27:36;99476.91;;;16.49;77.32
57038;BME280;59942;49.304;8.256;2023-08-06T10:30:27;99389.06;;;16.14;76.55
57038;BME280;59942;49.304;8.256;2023-08-06T10:32:56;99480.59;;;16.46;78.12
57038;BME280;59942;49.304;8.256;2023-08-06T10:38:18;99486.13;;;16.32;78.44
57038;BME280;59942;49.304;8.256;2023-08-06T10:45:54;99500.50;;;16.38;77.27
57038;BME280;59942;49.304;8.256;2023-08-06T10:48:38;99484.91;;;16.04;78.34
57038;BME280;59942;49.304;8.256;2023-08-06T10:51:08;99500.19;;;16.20;78.43
57038;BME280;59942;49.304;8.256;2023-08-06T10:53:35;99505.66;;;16.28;78.71
57038;BME280;59942;49.304;8.256;2023-08-06T10:56:02;99530.78;;;16.08;79.55
57038;BME280;59942;49.304;8.256;2023-08-06T10:58:38;99529.81;;;16.09;79.98
57038;BME280;59942;49.304;8.256;2023-08-06T11:01:04;99537.06;;;16.17;80.36
57038;BME280;59942;49.304;8.256;2023-08-06T11:03:33;99503.84;;;15.85;80.39
57038;BME280;59942;49.304;8.256;2023-08-06T11:06:00;99541.50;;;16.05;81.17
57038;BME280;59942;49.304;8.256;2023-08-06T11:08:27;99547.78;;;16.02;81.27
57038;BME280;59942;49.304;8.256;2023-08-06T11:10:55;99532.84;;;15.82;82.03
57038;BME280;59942;49.304;8.256;2023-08-06T11:13:29;99536.94;;;15.73;79.94
57038;BME280;59942;49.304;8.256;2023-08-06T11:15:56;99558.81;;;16.06;78.88
57038;BME280;59942;49.304;8.256;2023-08-06T11:18:22;99545.75;;;16.06;77.41
57038;BME280;59942;49.304;8.256;2023-08-06T11:20:49;99559.19;;;16.01;77.36
57038;BME280;59942;49.304;8.256;2023-08-06T11:23:16;99571.38;;;16.23;75.39
57038;BME280;59942;49.304;8.256;2023-08-06T11:25:45;99557.13;;;16.16;75.96
57038;BME280;59942;49.304;8.256;2023-08-06T11:28:12;99579.25;;;16.23;75.10
57038;BME280;59942;49.304;8.256;2023-08-06T11:30:39;99531.97;;;16.04;75.45
57038;BME280;59942;49.304;8.256;2023-08-06T11:33:07;99589.22;;;16.29;75.50
57038;BME280;59942;49.304;8.256;2023-08-06T11:35:35;99586.97;;;16.25;75.95
57038;BME280;59942;49.304;8.256;2023-08-06T11:38:02;99591.34;;;16.36;74.53
57038;BME280;59942;49.304;8.256;2023-08-06T11:40:29;99588.13;;;16.32;74.41
57038;BME280;59942;49.304;8.256;2023-08-06T11:42:55;99592.94;;;16.15;74.99
57038;BME280;59942;49.304;8.256;2023-08-06T11:45:23;99595.41;;;16.17;74.52
57038;BME280;59942;49.304;8.256;2023-08-06T11:47:51;99608.03;;;16.12;75.38
57038;BME280;59942;49.304;8.256;2023-08-06T11:50:23;99599.22;;;16.13;74.03
57038;BME280;59942;49.304;8.256;2023-08-06T11:52:55;99603.88;;;16.21;74.23
57038;BME280;59942;49.304;8.256;2023-08-06T11:55:24;99562.53;;;15.92;74.41
57038;BME280;59942;49.304;8.256;2023-08-06T11:57:51;99608.59;;;16.38;73.88
57038;BME280;59942;49.304;8.256;2023-08-06T12:00:18;99611.09;;;16.28;74.04
57038;BME280;59942;49.304;8.256;2023-08-06T12:02:46;99608.25;;;16.31;73.51
57038;BME280;59942;49.304;8.256;2023-08-06T12:05:14;99616.22;;;16.30;74.14
57038;BME280;59942;49.304;8.256;2023-08-06T12:07:43;99619.88;;;16.39;75.18
57038;BME280;59942;49.304;8.256;2023-08-06T12:10:12;99568.94;;;15.99;75.46
57038;BME280;59942;49.304;8.256;2023-08-06T12:12:39;99634.06;;;16.13;76.80
57038;BME280;59942;49.304;8.256;2023-08-06T12:15:07;99642.84;;;16.01;79.30
57038;BME280;59942;49.304;8.256;2023-08-06T12:17:34;99632.56;;;15.75;81.67
57038;BME280;59942;49.304;8.256;2023-08-06T12:20:01;99638.97;;;15.60;82.94
57038;BME280;59942;49.304;8.256;2023-08-06T12:22:29;99655.00;;;15.67;84.49
57038;BME280;59942;49.304;8.256;2023-08-06T12:24:58;99613.47;;;15.28;84.71
57038;BME280;59942;49.304;8.256;2023-08-06T12:27:25;99610.06;;;15.39;85.51
57038;BME280;59942;49.304;8.256;2023-08-06T12:29:51;99647.53;;;15.62;84.93
57038;BME280;59942;49.304;8.256;2023-08-06T12:32:18;99656.78;;;15.55;85.74
57038;BME280;59942;49.304;8.256;2023-08-06T12:34:45;99581.31;;;15.27;84.50
57038;BME280;59942;49.304;8.256;2023-08-06T12:37:19;99609.59;;;15.45;83.64
57038;BME280;59942;49.304;8.256;2023-08-06T12:39:46;99659.25;;;15.92;82.88
57038;BME280;59942;49.304;8.256;2023-08-06T12:42:13;99663.88;;;15.88;82.80
57038;BME280;59942;49.304;8.256;2023-08-06T12:44:39;99679.78;;;15.85;82.66
57038;BME280;59942;49.304;8.256;2023-08-06T12:47:09;99593.94;;;15.45;81.79
57038;BME280;59942;49.304;8.256;2023-08-06T12:49:36;99674.91;;;15.80;81.62
57038;BME280;59942;49.304;8.256;2023-08-06T12:52:03;99697.28;;;15.85;81.92
57038;BME280;59942;49.304;8.256;2023-08-06T12:54:33;99688.63;;;15.71;81.44
57038;BME280;59942;49.304;8.256;2023-08-06T12:57:06;99687.75;;;15.84;80.88
57038;BME280;59942;49.304;8.256;2023-08-06T12:59:33;99693.34;;;15.79;80.64
57038;BME280;59942;49.304;8.256;2023-08-06T13:02:00;99702.03;;;15.91;81.26
57038;BME280;59942;49.304;8.256;2023-08-06T13:04:27;99669.50;;;15.59;81.21
57038;BME280;59942;49.304;8.256;2023-08-06T13:06:54;99716.44;;;15.72;82.68
57038;BME280;59942;49.304;8.256;2023-08-06T13:09:21;99676.25;;;15.26;84.90
57038;BME280;59942;49.304;8.256;2023-08-06T13:11:47;99716.75;;;15.56;85.01
57038;BME280;59942;49.304;8.256;2023-08-06T13:14:16;99711.88;;;15.52;86.12
57038;BME280;59942;49.304;8.256;2023-08-06T13:16:44;99677.47;;;15.34;86.19
57038;BME280;59942;49.304;8.256;2023-08-06T13:19:11;99718.09;;;15.62;82.76